createdAt,value
2023-01-29T07:34:49.473Z,78.68
2023-01-29T07:39:51.539Z,78.47
2023-01-29T07:44:53.579Z,78.09
2023-01-29T07:49:55.659Z,77.82
2023-01-29T07:54:57.760Z,77.57
2023-01-29T07:59:59.794Z,76.99
2023-01-29T08:05:01.851Z,76.97
2023-01-29T08:10:04.993Z,76.92
2023-01-29T08:15:08.097Z,76.51
2023-01-29T08:20:10.900Z,76.28
2023-01-29T08:25:14.067Z,76.14
2023-01-29T08:30:16.960Z,75.90
2023-01-29T08:35:20.129Z,75.56
2023-01-29T08:40:22.960Z,75.54
2023-01-29T08:45:25.077Z,75.54
2023-01-29T08:50:27.295Z,75.07
2023-01-29T08:55:29.396Z,75.17
2023-01-29T09:00:32.761Z,74.70
2023-01-29T09:05:35.685Z,74.80
2023-01-29T09:10:37.867Z,74.73
2023-01-29T09:15:40.509Z,74.17
2023-01-29T09:20:42.614Z,74.02
2023-01-29T09:25:44.799Z,73.78
2023-01-29T09:30:47.029Z,73.51
2023-01-29T09:35:49.187Z,73.28
2023-01-29T09:41:06.324Z,73.09
2023-01-29T09:46:19.725Z,72.87
2023-01-29T09:51:30.617Z,72.43
2023-01-29T09:56:32.754Z,72.19
2023-01-29T10:01:50.243Z,71.66
2023-01-29T10:06:55.131Z,70.98
2023-01-29T10:12:00.177Z,70.63
2023-01-29T10:17:17.571Z,70.41
2023-01-29T10:22:33.045Z,69.99
2023-01-29T10:27:38.652Z,69.92
2023-01-29T10:32:40.739Z,69.44
2023-01-29T10:37:44.050Z,69.23
2023-01-29T10:43:08.920Z,68.98
2023-01-29T10:48:35.404Z,68.91
2023-01-29T10:54:07.883Z,68.89
2023-01-29T10:59:26.886Z,68.43
2023-01-29T11:04:31.816Z,68.56
2023-01-29T11:10:00.114Z,68.16
2023-01-29T11:15:06.982Z,67.81
2023-01-29T11:20:27.363Z,66.90
2023-01-29T11:25:32.620Z,66.11
2023-01-29T11:30:39.164Z,65.69
2023-01-29T11:35:41.592Z,65.85
2023-01-29T11:40:44.445Z,65.03
2023-01-29T11:45:49.529Z,64.68
2023-01-29T11:50:58.599Z,64.44
2023-01-29T11:56:03.380Z,64.22
2023-01-29T12:01:05.835Z,63.81
2023-01-29T12:06:18.478Z,63.32
2023-01-29T12:11:32.627Z,62.61
2023-01-29T12:17:03.980Z,62.04
2023-01-29T12:22:15.259Z,61.77
2023-01-29T12:27:36.099Z,61.59
2023-01-29T12:32:59.670Z,60.66
2023-01-29T12:38:07.469Z,60.56
2023-01-29T12:43:16.933Z,60.37
2023-01-29T12:48:33.108Z,60.42
2023-01-29T12:53:37.470Z,60.09
2023-01-29T12:58:47.166Z,59.54
2023-01-29T13:03:55.594Z,59.47
2023-01-29T13:09:08.360Z,59.86
2023-01-29T13:14:26.550Z,59.43
2023-01-29T13:19:35.097Z,58.10
2023-01-29T13:24:40.562Z,57.59
2023-01-29T13:29:44.636Z,57.12
2023-01-29T13:34:49.517Z,56.24
2023-01-29T13:39:53.661Z,54.71
2023-01-29T13:44:57.720Z,54.84
2023-01-29T13:50:07.605Z,56.44
2023-01-29T13:55:19.035Z,57.17
2023-01-29T14:00:21.286Z,56.48
2023-01-29T14:05:29.417Z,57.08
2023-01-29T14:10:36.359Z,57.65
2023-01-29T14:15:42.023Z,57.54
2023-01-29T14:20:47.086Z,58.12
2023-01-29T14:25:49.579Z,57.34
2023-01-29T14:30:53.279Z,58.04
2023-01-29T14:35:58.004Z,58.25
2023-01-29T14:41:16.928Z,59.09
2023-01-29T14:46:34.389Z,59.97
2023-01-29T14:51:41.723Z,60.54
2023-01-29T14:56:57.333Z,61.36
2023-01-29T15:02:12.108Z,62.26
2023-01-29T15:07:39.173Z,62.11
2023-01-29T15:12:50.678Z,62.41
2023-01-29T15:18:01.972Z,62.81
2023-01-29T15:23:22.435Z,63.68
2023-01-29T15:28:25.232Z,64.91
2023-01-29T15:33:28.331Z,64.79
2023-01-29T15:38:30.609Z,64.74
2023-01-29T15:43:37.191Z,65.47
2023-01-29T15:48:43.325Z,65.79
2023-01-29T15:53:55.079Z,66.50
2023-01-29T15:59:00.816Z,66.72
2023-01-29T16:04:03.748Z,66.93
2023-01-29T16:09:06.886Z,67.06
2023-01-29T16:14:14.349Z,67.34
2023-01-29T16:19:28.373Z,68.01
2023-01-29T16:24:32.508Z,67.95
2023-01-29T16:29:35.906Z,68.02
2023-01-29T16:34:40.851Z,68.25
2023-01-29T16:39:47.450Z,68.54
2023-01-29T16:44:54.260Z,68.84
2023-01-29T16:50:00.665Z,68.67
2023-01-29T16:55:23.108Z,68.38
2023-01-29T17:00:28.623Z,68.09
2023-01-29T17:05:34.264Z,68.36
2023-01-29T17:10:36.509Z,68.03
2023-01-29T17:15:45.817Z,68.44
2023-01-29T17:20:49.147Z,69.06
2023-01-29T17:25:51.867Z,69.35
2023-01-29T17:31:05.737Z,69.75
2023-01-29T17:36:17.540Z,69.84
2023-01-29T17:41:27.171Z,70.10
2023-01-29T17:46:29.292Z,70.17
2023-01-29T17:51:31.363Z,70.59
2023-01-29T17:56:33.451Z,70.75
2023-01-29T18:01:35.547Z,70.66
2023-01-29T18:06:38.349Z,71.03
2023-01-29T18:11:41.408Z,70.79
2023-01-29T18:16:44.979Z,70.93
2023-01-29T18:21:48.063Z,71.16
2023-01-29T18:26:51.291Z,70.87
2023-01-29T18:31:53.538Z,71.10
2023-01-29T18:36:55.692Z,71.25
2023-01-29T18:41:57.755Z,71.06
2023-01-29T18:46:59.863Z,71.63
2023-01-29T18:52:01.948Z,71.42
2023-01-29T18:57:13.704Z,71.45
2023-01-29T19:02:19.329Z,71.76
2023-01-29T19:07:21.535Z,71.87
2023-01-29T19:12:24.215Z,72.00
2023-01-29T19:17:26.800Z,72.09
2023-01-29T19:22:29.486Z,71.96
2023-01-29T19:27:31.648Z,72.09
2023-01-29T19:32:34.641Z,72.24
2023-01-29T19:37:36.821Z,72.41
2023-01-29T19:42:38.995Z,72.52
2023-01-29T19:47:42.779Z,72.53
2023-01-29T19:52:52.200Z,72.99
2023-01-29T19:57:55.299Z,73.25
2023-01-29T20:02:57.452Z,73.13
2023-01-29T20:07:59.572Z,73.17
2023-01-29T20:13:01.721Z,73.28
2023-01-29T20:18:05.651Z,73.33
2023-01-29T20:23:07.983Z,73.58
2023-01-29T20:28:12.348Z,73.64
2023-01-29T20:33:14.496Z,73.93
2023-01-29T20:38:16.661Z,73.87
2023-01-29T20:43:18.726Z,73.93
2023-01-29T20:48:20.819Z,74.10
2023-01-29T20:53:22.974Z,74.07
2023-01-29T20:58:25.380Z,73.98
2023-01-29T21:03:27.819Z,74.09
2023-01-29T21:08:29.906Z,74.39
